createdAt,value
2023-04-22T00:01:35.138Z,55.04
2023-04-22T00:04:03.166Z,55.54
2023-04-22T00:06:32.066Z,55.16
2023-04-22T00:08:59.874Z,55.24
2023-04-22T00:11:29.041Z,55.79
2023-04-22T00:13:57.428Z,55.79
2023-04-22T00:16:26.248Z,55.54
2023-04-22T00:18:54.122Z,55.39
2023-04-22T00:21:22.583Z,55.96
2023-04-22T00:23:50.369Z,55.46
2023-04-22T00:26:18.195Z,56.02
2023-04-22T00:28:47.886Z,56.11
2023-04-22T00:31:15.467Z,54.97
2023-04-22T00:33:43.436Z,55.39
2023-04-22T00:36:11.775Z,55.52
2023-04-22T00:38:39.642Z,55.89
2023-04-22T00:41:08.198Z,55.67
2023-04-22T00:43:36.612Z,55.62
2023-04-22T00:46:06.088Z,55.41
2023-04-22T00:48:34.162Z,55.28
2023-04-22T00:51:02.619Z,55.22
2023-04-22T00:53:30.441Z,55.14
2023-04-22T00:55:58.387Z,55.03
2023-04-22T00:58:29.590Z,55.41
2023-04-22T01:00:58.002Z,55.34
2023-04-22T01:03:31.019Z,55.05
2023-04-22T01:05:59.218Z,55.15
2023-04-22T01:08:32.903Z,55.31
2023-04-22T01:11:01.235Z,55.37
2023-04-22T01:13:30.543Z,55.64
2023-04-22T01:16:00.408Z,55.41
2023-04-22T01:18:29.626Z,55.51
2023-04-22T01:20:57.596Z,55.41
2023-04-22T01:23:27.628Z,55.40
2023-04-22T01:25:56.065Z,55.31
2023-04-22T01:28:24.833Z,55.41
2023-04-22T01:30:53.917Z,55.39
2023-04-22T01:33:21.826Z,55.32
2023-04-22T01:35:49.643Z,55.32
2023-04-22T01:38:18.030Z,55.13
2023-04-22T01:40:47.186Z,55.29
2023-04-22T01:43:14.997Z,55.42
2023-04-22T01:45:44.049Z,55.62
2023-04-22T01:48:12.211Z,55.19
2023-04-22T01:50:40.076Z,55.40
2023-04-22T01:53:09.599Z,55.65
2023-04-22T01:55:37.652Z,55.55
2023-04-22T01:58:06.870Z,55.46
2023-04-22T02:00:35.287Z,55.38
2023-04-22T02:03:03.288Z,55.33
2023-04-22T02:05:31.241Z,55.53
2023-04-22T02:07:59.669Z,55.76
2023-04-22T02:10:27.492Z,55.80
2023-04-22T02:12:55.352Z,55.76
2023-04-22T02:15:25.146Z,55.87
2023-04-22T02:17:53.044Z,55.87
2023-04-22T02:20:20.875Z,56.11
2023-04-22T02:22:49.407Z,55.97
2023-04-22T02:25:17.623Z,55.85
2023-04-22T02:27:45.464Z,55.93
2023-04-22T02:30:13.972Z,56.28
2023-04-22T02:32:43.206Z,56.18
2023-04-22T02:35:12.302Z,56.38
2023-04-22T02:37:40.956Z,56.36
2023-04-22T02:40:09.876Z,56.21
2023-04-22T02:42:37.700Z,56.25
2023-04-22T02:45:07.028Z,56.24
2023-04-22T02:47:34.874Z,56.60
2023-04-22T02:50:04.144Z,56.44
2023-04-22T02:52:32.512Z,56.62
2023-04-22T02:55:00.529Z,56.44
2023-04-22T02:57:28.458Z,56.75
2023-04-22T02:59:57.653Z,56.58
2023-04-22T03:02:25.596Z,56.53
2023-04-22T03:04:54.421Z,56.43
2023-04-22T03:07:23.637Z,56.66
2023-04-22T03:09:51.441Z,56.57
2023-04-22T03:12:19.235Z,56.49
2023-04-22T03:14:47.618Z,56.52
2023-04-22T03:17:15.407Z,56.76
2023-04-22T03:19:43.750Z,56.92
2023-04-22T03:22:12.290Z,56.53
2023-04-22T03:24:41.450Z,56.77
2023-04-22T03:27:10.550Z,57.01
2023-04-22T03:29:39.035Z,56.92
2023-04-22T03:32:07.091Z,56.90
2023-04-22T03:34:37.102Z,56.89
2023-04-22T03:37:05.708Z,57.13
2023-04-22T03:39:33.464Z,57.18
2023-04-22T03:42:02.669Z,57.17
2023-04-22T03:44:30.788Z,57.32
2023-04-22T03:46:58.572Z,57.13
2023-04-22T03:49:27.125Z,57.07
2023-04-22T03:51:55.520Z,57.18
2023-04-22T03:54:23.291Z,57.36
2023-04-22T03:56:51.067Z,57.29
2023-04-22T03:59:21.050Z,57.58
2023-04-22T04:01:48.874Z,57.55
2023-04-22T04:04:17.068Z,57.62
2023-04-22T04:06:45.550Z,57.64
2023-04-22T04:09:13.417Z,57.59
2023-04-22T04:11:41.218Z,57.58
2023-04-22T04:14:10.250Z,57.45
2023-04-22T04:16:39.406Z,57.51
2023-04-22T04:19:07.413Z,57.74
2023-04-22T04:21:35.609Z,57.84
2023-04-22T04:24:04.257Z,57.72
2023-04-22T04:26:32.530Z,57.67
2023-04-22T04:29:02.184Z,57.84
2023-04-22T04:31:29.806Z,57.47
2023-04-22T04:33:59.017Z,57.62
2023-04-22T04:36:29.634Z,57.59
2023-04-22T04:38:57.391Z,57.95
2023-04-22T04:41:27.004Z,58.14
2023-04-22T04:43:55.052Z,57.39
2023-04-22T04:46:23.520Z,58.08
2023-04-22T04:48:53.960Z,58.10
2023-04-22T04:51:23.708Z,58.20
2023-04-22T04:53:51.376Z,57.61
2023-04-22T04:56:19.160Z,58.11
2023-04-22T04:58:47.404Z,58.28
2023-04-22T05:01:15.233Z,58.65
2023-04-22T05:03:43.153Z,58.64
2023-04-22T05:06:11.915Z,58.57
2023-04-22T05:08:41.094Z,58.95
2023-04-22T05:11:08.897Z,59.07
2023-04-22T05:13:37.240Z,59.06
2023-04-22T05:16:05.322Z,59.16
2023-04-22T05:18:33.177Z,59.26
2023-04-22T05:21:01.475Z,59.28
2023-04-22T05:23:30.047Z,59.42
2023-04-22T05:25:59.438Z,59.25
2023-04-22T05:28:27.773Z,59.58
2023-04-22T05:30:55.572Z,59.32
2023-04-22T05:33:23.396Z,59.53
2023-04-22T05:35:52.838Z,59.55
2023-04-22T05:38:20.636Z,59.49
2023-04-22T05:40:48.498Z,59.53
2023-04-22T05:43:18.523Z,59.57
2023-04-22T05:45:46.379Z,59.70
2023-04-22T05:48:14.153Z,59.70
2023-04-22T05:50:42.526Z,60.06
2023-04-22T05:53:10.303Z,59.61
2023-04-22T05:55:38.122Z,60.19
2023-04-22T05:58:06.505Z,60.62
2023-04-22T06:00:35.702Z,60.50
2023-04-22T06:03:03.775Z,60.66
2023-04-22T06:05:32.335Z,60.99
2023-04-22T06:08:00.355Z,61.01
2023-04-22T06:10:28.201Z,61.25
2023-04-22T06:12:56.510Z,61.35
2023-04-22T06:15:24.287Z,61.49
2023-04-22T06:17:53.486Z,61.37
2023-04-22T06:20:21.826Z,61.60
2023-04-22T06:22:49.614Z,61.78
2023-04-22T06:25:17.593Z,61.86
2023-04-22T06:27:46.249Z,62.04
2023-04-22T06:30:14.604Z,61.77
2023-04-22T06:32:42.396Z,61.77
2023-04-22T06:35:12.377Z,61.76
2023-04-22T06:37:40.236Z,62.21
2023-04-22T06:40:09.345Z,62.22
2023-04-22T06:42:37.874Z,62.13
2023-04-22T06:45:06.408Z,62.09
2023-04-22T06:47:34.353Z,62.03
2023-04-22T06:50:03.787Z,61.78
2023-04-22T06:52:32.942Z,61.84
2023-04-22T06:55:00.802Z,62.15
2023-04-22T06:57:29.157Z,62.52
2023-04-22T06:59:57.038Z,62.67
2023-04-22T07:02:24.917Z,62.46
2023-04-22T07:04:53.387Z,62.45
2023-04-22T07:07:21.578Z,62.55
2023-04-22T07:09:50.745Z,63.10
2023-04-22T07:12:19.217Z,64.03
2023-04-22T07:14:47.887Z,63.29
2023-04-22T07:17:15.762Z,63.55
2023-04-22T07:19:44.192Z,63.42
2023-04-22T07:22:12.196Z,62.62
2023-04-22T07:24:40.923Z,62.74
2023-04-22T07:27:10.525Z,63.28
2023-04-22T07:29:38.271Z,62.65
2023-04-22T07:32:06.609Z,62.81
2023-04-22T07:34:35.127Z,62.89
2023-04-22T07:37:03.071Z,63.27
2023-04-22T07:39:30.859Z,63.58
2023-04-22T07:41:59.157Z,62.85
2023-04-22T07:44:28.309Z,62.69
2023-04-22T07:46:56.258Z,62.78
2023-04-22T07:49:24.661Z,62.76
2023-04-22T07:51:52.687Z,63.53
2023-04-22T07:54:20.479Z,63.21
2023-04-22T07:56:48.923Z,63.06
2023-04-22T07:59:16.709Z,63.03
2023-04-22T08:01:47.063Z,63.59
2023-04-22T08:04:15.815Z,63.92
2023-04-22T08:06:44.160Z,63.96
2023-04-22T08:09:12.019Z,63.42
2023-04-22T08:11:40.587Z,63.87
2023-04-22T08:14:08.385Z,63.53
2023-04-22T08:16:36.215Z,62.51
2023-04-22T08:19:06.303Z,63.13
2023-04-22T08:21:34.215Z,62.09
2023-04-22T08:24:02.030Z,62.30
2023-04-22T08:26:29.879Z,61.26
2023-04-22T08:28:57.686Z,60.98
2023-04-22T08:31:25.559Z,61.41
2023-04-22T08:33:54.035Z,61.14
2023-04-22T08:36:25.862Z,61.50
2023-04-22T08:38:55.182Z,61.86
2023-04-22T08:41:24.505Z,61.28
2023-04-22T08:43:54.057Z,60.51
2023-04-22T08:46:24.534Z,60.67
2023-04-22T08:48:52.676Z,60.10
2023-04-22T08:51:20.888Z,59.67
2023-04-22T08:53:50.847Z,60.01
2023-04-22T08:56:18.715Z,60.19
2023-04-22T08:58:47.420Z,59.65
2023-04-22T09:01:18.663Z,59.32
2023-04-22T09:03:47.329Z,59.85
2023-04-22T09:06:15.781Z,59.42
2023-04-22T09:08:44.941Z,59.35
2023-04-22T09:11:14.183Z,59.11
2023-04-22T09:13:43.315Z,59.33
2023-04-22T09:16:11.930Z,60.15
2023-04-22T09:18:43.535Z,60.18
2023-04-22T09:21:11.539Z,59.86
2023-04-22T09:23:47.875Z,60.33
2023-04-22T09:26:18.497Z,59.88
2023-04-22T09:28:51.811Z,60.60
2023-04-22T09:31:20.681Z,60.33
2023-04-22T09:33:50.735Z,60.67
2023-04-22T09:36:22.864Z,60.89
2023-04-22T09:38:55.438Z,61.06
2023-04-22T09:41:32.178Z,61.59
2023-04-22T09:44:01.482Z,62.21
2023-04-22T09:46:30.822Z,61.99
2023-04-22T09:49:00.535Z,62.16
2023-04-22T09:51:28.942Z,61.28
2023-04-22T09:54:01.947Z,62.57
2023-04-22T09:56:47.962Z,62.48
2023-04-22T09:59:20.745Z,63.33
2023-04-22T10:01:48.809Z,63.52
2023-04-22T10:04:21.694Z,64.12
2023-04-22T10:06:49.978Z,64.25
2023-04-22T10:09:20.148Z,64.59
2023-04-22T10:11:51.725Z,64.35
2023-04-22T10:14:19.654Z,64.76
2023-04-22T10:16:49.214Z,64.35
2023-04-22T10:19:18.821Z,63.43
2023-04-22T10:21:48.902Z,65.11
2023-04-22T10:24:18.331Z,64.88
2023-04-22T10:26:56.791Z,64.83
2023-04-22T10:29:26.623Z,65.42
2023-04-22T10:31:58.309Z,65.34
2023-04-22T10:34:26.572Z,65.69
2023-04-22T10:36:56.140Z,65.59
2023-04-22T10:39:24.095Z,64.64
2023-04-22T10:42:05.895Z,65.08
2023-04-22T10:44:51.222Z,65.52
2023-04-22T10:47:30.301Z,65.39
2023-04-22T10:50:15.926Z,65.27
2023-04-22T10:52:47.804Z,65.94
2023-04-22T10:55:16.254Z,65.76
2023-04-22T10:57:48.455Z,66.30
2023-04-22T11:00:52.469Z,66.02
2023-04-22T11:03:29.249Z,65.73
2023-04-22T11:06:17.144Z,66.00
2023-04-22T11:08:50.118Z,66.29
2023-04-22T11:11:20.020Z,66.46
2023-04-22T11:13:52.534Z,66.74
2023-04-22T11:16:23.393Z,66.42
2023-04-22T11:18:51.700Z,66.78
2023-04-22T11:21:21.660Z,66.65
2023-04-22T11:23:52.454Z,67.27
2023-04-22T11:26:20.433Z,66.64
2023-04-22T11:28:50.243Z,66.77
2023-04-22T11:31:18.198Z,66.71
2023-04-22T11:33:47.795Z,66.29
2023-04-22T11:36:19.467Z,66.59
2023-04-22T11:38:56.100Z,65.94
2023-04-22T11:41:24.677Z,66.54
2023-04-22T11:43:54.904Z,66.68
2023-04-22T11:46:30.711Z,66.47
2023-04-22T11:49:13.138Z,66.11
2023-04-22T11:51:54.269Z,66.63
2023-04-22T11:54:32.872Z,66.35
2023-04-22T11:57:03.812Z,66.56
2023-04-22T11:59:33.053Z,66.46
2023-04-22T12:02:00.913Z,66.26
2023-04-22T12:04:28.882Z,66.03
2023-04-22T12:06:56.627Z,66.47
2023-04-22T12:09:25.708Z,66.54
2023-04-22T12:11:54.195Z,66.60
2023-04-22T12:14:22.034Z,66.51
2023-04-22T12:16:51.855Z,66.23
2023-04-22T12:19:27.439Z,66.81
2023-04-22T12:21:56.972Z,66.58
2023-04-22T12:24:29.357Z,66.46
2023-04-22T12:26:58.648Z,66.65
2023-04-22T12:29:33.473Z,66.67
2023-04-22T12:32:02.710Z,67.04
2023-04-22T12:34:30.540Z,67.20
2023-04-22T12:37:00.317Z,67.06
2023-04-22T12:39:28.116Z,67.26
2023-04-22T12:41:55.878Z,67.71
2023-04-22T12:44:25.177Z,67.60
2023-04-22T12:46:53.544Z,67.83
2023-04-22T12:49:23.173Z,67.97
2023-04-22T12:51:51.293Z,67.67
2023-04-22T12:54:20.707Z,67.45
2023-04-22T12:56:49.427Z,67.71
2023-04-22T12:59:17.203Z,67.94
2023-04-22T13:01:45.115Z,67.19
2023-04-22T13:04:13.199Z,67.58
2023-04-22T13:06:44.276Z,67.69
2023-04-22T13:09:12.952Z,67.14
2023-04-22T13:11:41.257Z,67.65
2023-04-22T13:14:09.058Z,67.74
2023-04-22T13:16:37.021Z,67.75
2023-04-22T13:19:04.961Z,67.29
2023-04-22T13:21:32.983Z,67.31
2023-04-22T13:24:02.275Z,67.38
2023-04-22T13:26:30.202Z,67.50
2023-04-22T13:28:58.058Z,67.72
2023-04-22T13:31:25.871Z,67.65
2023-04-22T13:33:54.257Z,67.21
2023-04-22T13:36:22.176Z,67.42
2023-04-22T13:38:51.097Z,67.29
2023-04-22T13:41:20.460Z,67.63
2023-04-22T13:43:51.810Z,67.58
2023-04-22T13:46:19.777Z,67.42
2023-04-22T13:48:48.031Z,67.55
2023-04-22T13:51:16.202Z,67.65
2023-04-22T13:53:43.997Z,67.30
2023-04-22T13:56:13.233Z,67.24
2023-04-22T13:58:43.425Z,67.73
2023-04-22T14:01:11.384Z,67.16
2023-04-22T14:03:39.782Z,66.98
2023-04-22T14:06:08.125Z,66.94
2023-04-22T14:08:35.950Z,66.57
2023-04-22T14:11:04.722Z,66.57
2023-04-22T14:13:32.518Z,66.58
2023-04-22T14:16:03.124Z,66.56
2023-04-22T14:18:31.628Z,66.20
2023-04-22T14:20:59.441Z,66.23
2023-04-22T14:23:27.241Z,66.58
2023-04-22T14:25:56.268Z,66.48
2023-04-22T14:28:24.273Z,66.54
2023-04-22T14:30:52.139Z,66.05
2023-04-22T14:33:24.028Z,66.22
2023-04-22T14:35:52.143Z,66.63
2023-04-22T14:38:21.845Z,65.88
2023-04-22T14:40:50.922Z,65.86
2023-04-22T14:43:19.890Z,66.31
2023-04-22T14:45:48.287Z,65.81
2023-04-22T14:48:16.623Z,65.73
2023-04-22T14:50:45.881Z,65.45
2023-04-22T14:53:13.691Z,65.52
2023-04-22T14:55:42.037Z,65.42
2023-04-22T14:58:09.969Z,65.13
2023-04-22T15:00:37.901Z,65.35
2023-04-22T15:03:06.282Z,64.93
2023-04-22T15:05:34.290Z,64.85
2023-04-22T15:08:03.480Z,64.94
2023-04-22T15:10:31.320Z,64.83
2023-04-22T15:13:00.257Z,65.22
2023-04-22T15:15:28.099Z,65.06
2023-04-22T15:17:56.579Z,65.65
2023-04-22T15:20:24.498Z,65.04
2023-04-22T15:22:52.301Z,65.46
2023-04-22T15:25:22.306Z,64.53
2023-04-22T15:27:50.119Z,65.44
2023-04-22T15:30:17.938Z,65.00
2023-04-22T15:32:46.143Z,65.21
2023-04-22T15:35:14.232Z,64.43
2023-04-22T15:37:42.171Z,64.88
2023-04-22T15:40:10.912Z,64.67
2023-04-22T15:42:40.091Z,65.16
2023-04-22T15:45:08.960Z,64.54
2023-04-22T15:47:37.871Z,64.50
2023-04-22T15:50:08.704Z,65.03
2023-04-22T15:52:38.203Z,65.25
2023-04-22T15:55:07.511Z,64.70
2023-04-22T15:57:35.604Z,64.82
2023-04-22T16:00:12.057Z,64.48
2023-04-22T16:02:41.721Z,64.59
2023-04-22T16:05:10.759Z,64.71
2023-04-22T16:07:38.616Z,64.11
2023-04-22T16:10:07.415Z,64.36
2023-04-22T16:12:35.702Z,63.63
2023-04-22T16:15:05.557Z,63.69
2023-04-22T16:17:33.444Z,64.23
2023-04-22T16:20:02.072Z,64.05
2023-04-22T16:22:29.946Z,63.75
2023-04-22T16:24:57.739Z,64.18
2023-04-22T16:27:26.250Z,63.21
2023-04-22T16:29:54.048Z,63.73
2023-04-22T16:32:23.226Z,63.75
2023-04-22T16:34:51.608Z,63.28
2023-04-22T16:37:19.383Z,63.97
2023-04-22T16:39:47.418Z,63.08
2023-04-22T16:42:15.564Z,62.83
2023-04-22T16:44:43.334Z,62.93
2023-04-22T16:47:11.138Z,63.14
2023-04-22T16:49:41.083Z,62.98
2023-04-22T16:52:09.116Z,62.56
2023-04-22T16:54:36.903Z,62.46
2023-04-22T16:57:05.329Z,62.31
2023-04-22T16:59:33.658Z,62.74
2023-04-22T17:02:01.941Z,62.80
2023-04-22T17:04:30.895Z,62.86
2023-04-22T17:07:00.629Z,62.45
2023-04-22T17:09:28.562Z,63.31
2023-04-22T17:11:58.035Z,63.17
2023-04-22T17:14:26.339Z,62.76
2023-04-22T17:16:54.465Z,62.47
2023-04-22T17:19:23.132Z,62.31
2023-04-22T17:21:51.161Z,62.30
2023-04-22T17:24:22.270Z,62.70
2023-04-22T17:26:51.322Z,62.50
2023-04-22T17:29:21.634Z,62.53
2023-04-22T17:31:49.980Z,63.27
2023-04-22T17:34:18.724Z,62.65
2023-04-22T17:36:46.817Z,63.08
2023-04-22T17:39:15.434Z,63.05
2023-04-22T17:41:46.118Z,62.56
2023-04-22T17:44:14.093Z,62.78
2023-04-22T17:46:42.388Z,62.52
2023-04-22T17:49:11.427Z,62.95
2023-04-22T17:51:39.679Z,62.75
2023-04-22T17:54:07.850Z,62.94
2023-04-22T17:56:37.158Z,62.70
2023-04-22T17:59:06.716Z,62.99
2023-04-22T18:01:34.983Z,62.97
2023-04-22T18:04:03.759Z,62.80
2023-04-22T18:06:32.473Z,62.55
2023-04-22T18:09:00.807Z,62.39
2023-04-22T18:11:29.620Z,62.02
2023-04-22T18:13:57.797Z,61.89
2023-04-22T18:16:27.472Z,61.87
2023-04-22T18:18:55.350Z,62.03
2023-04-22T18:21:23.468Z,61.96
2023-04-22T18:23:53.295Z,62.01
2023-04-22T18:26:21.886Z,62.00
2023-04-22T18:28:50.103Z,61.93
2023-04-22T18:31:18.438Z,62.08
2023-04-22T18:33:48.680Z,61.28
2023-04-22T18:36:16.798Z,61.41
2023-04-22T18:38:44.913Z,61.90
2023-04-22T18:41:15.335Z,61.54
2023-04-22T18:43:43.418Z,61.51
2023-04-22T18:46:11.588Z,61.75
2023-04-22T18:48:40.395Z,61.77
2023-04-22T18:51:09.956Z,61.25
2023-04-22T18:53:38.061Z,61.89
2023-04-22T18:56:07.039Z,61.78
2023-04-22T18:58:35.165Z,61.83
2023-04-22T19:01:03.321Z,61.80
2023-04-22T19:03:32.378Z,61.79
2023-04-22T19:06:00.637Z,61.74
2023-04-22T19:08:30.091Z,61.38
2023-04-22T19:10:58.880Z,61.68
2023-04-22T19:13:29.588Z,61.44
2023-04-22T19:16:00.631Z,61.12
2023-04-22T19:18:28.874Z,60.96
2023-04-22T19:20:57.161Z,61.58
2023-04-22T19:23:25.902Z,61.49
2023-04-22T19:25:55.689Z,61.26
2023-04-22T19:28:23.589Z,61.85
2023-04-22T19:30:52.677Z,61.01
2023-04-22T19:33:20.974Z,60.80
2023-04-22T19:35:49.379Z,60.95
2023-04-22T19:38:19.808Z,61.08
2023-04-22T19:40:48.693Z,61.26
2023-04-22T19:43:19.834Z,61.22
2023-04-22T19:45:48.191Z,61.54
2023-04-22T19:48:17.259Z,61.55
2023-04-22T19:50:46.540Z,61.97
2023-04-22T19:53:15.406Z,61.23
2023-04-22T19:55:44.628Z,61.60
2023-04-22T19:58:13.390Z,61.34
2023-04-22T20:00:43.717Z,61.79
2023-04-22T20:03:14.631Z,61.55
2023-04-22T20:05:44.489Z,61.47
2023-04-22T20:08:15.137Z,61.84
2023-04-22T20:10:44.519Z,61.37
2023-04-22T20:13:13.107Z,61.35
2023-04-22T20:15:43.441Z,61.50
2023-04-22T20:18:12.286Z,62.02
2023-04-22T20:20:45.080Z,62.03
2023-04-22T20:23:15.780Z,62.07
2023-04-22T20:25:45.889Z,62.19
2023-04-22T20:28:14.361Z,61.55
2023-04-22T20:30:44.674Z,62.08
2023-04-22T20:33:16.723Z,61.55
2023-04-22T20:35:48.073Z,61.68
2023-04-22T20:38:20.040Z,61.77
2023-04-22T20:40:48.866Z,61.40
2023-04-22T20:43:17.274Z,61.14
2023-04-22T20:45:46.891Z,61.18
2023-04-22T20:48:14.847Z,61.58
2023-04-22T20:50:44.320Z,61.58
2023-04-22T20:53:12.954Z,61.63
2023-04-22T20:55:41.385Z,61.71
2023-04-22T20:58:09.676Z,61.97
2023-04-22T21:00:37.929Z,61.77
2023-04-22T21:03:10.425Z,62.21
2023-04-22T21:05:42.253Z,61.31
2023-04-22T21:08:24.736Z,61.70
2023-04-22T21:10:54.168Z,61.98
2023-04-22T21:13:22.846Z,61.36
2023-04-22T21:15:57.653Z,61.96
2023-04-22T21:18:29.044Z,61.88
2023-04-22T21:20:58.213Z,62.14
2023-04-22T21:23:27.819Z,61.62
2023-04-22T21:25:57.329Z,61.60
2023-04-22T21:28:26.054Z,61.62
2023-04-22T21:30:54.831Z,61.79
2023-04-22T21:33:25.262Z,61.42
2023-04-22T21:35:55.711Z,61.80
2023-04-22T21:38:23.788Z,61.43
2023-04-22T21:40:52.416Z,61.41
2023-04-22T21:43:21.254Z,61.90
2023-04-22T21:45:49.344Z,62.23
2023-04-22T21:48:17.403Z,61.70
2023-04-22T21:50:45.913Z,62.26
2023-04-22T21:53:15.591Z,62.55
2023-04-22T21:55:43.508Z,61.76
2023-04-22T21:58:12.267Z,62.09
2023-04-22T22:00:40.640Z,61.88
2023-04-22T22:03:08.990Z,61.92
2023-04-22T22:05:38.268Z,62.60
2023-04-22T22:08:07.085Z,62.55
2023-04-22T22:10:36.986Z,62.56
2023-04-22T22:13:05.715Z,62.24
2023-04-22T22:15:33.990Z,61.90
2023-04-22T22:18:02.150Z,61.83
2023-04-22T22:20:31.380Z,62.36
2023-04-22T22:23:00.804Z,62.07
2023-04-22T22:25:28.993Z,61.84
2023-04-22T22:27:59.027Z,61.73
2023-04-22T22:30:27.222Z,61.67
2023-04-22T22:32:55.374Z,62.01
2023-04-22T22:35:24.043Z,61.57
2023-04-22T22:37:52.146Z,62.10
2023-04-22T22:40:20.262Z,61.96
2023-04-22T22:42:48.787Z,62.19
2023-04-22T22:45:18.298Z,62.05
2023-04-22T22:47:47.087Z,62.43
2023-04-22T22:50:15.964Z,61.98
2023-04-22T22:52:44.203Z,62.14
2023-04-22T22:55:12.167Z,61.92
2023-04-22T22:57:40.846Z,62.13
2023-04-22T23:00:11.930Z,61.76
2023-04-22T23:02:42.479Z,62.35
2023-04-22T23:05:11.182Z,61.85
2023-04-22T23:07:39.214Z,62.04
2023-04-22T23:10:09.298Z,62.04
2023-04-22T23:12:37.454Z,62.25
2023-04-22T23:15:06.604Z,62.02
2023-04-22T23:17:35.307Z,61.88
2023-04-22T23:20:07.400Z,62.55
2023-04-22T23:22:37.727Z,61.91
2023-04-22T23:25:06.984Z,62.34
2023-04-22T23:27:36.089Z,61.97
2023-04-22T23:30:05.657Z,62.26
2023-04-22T23:32:36.513Z,61.90
2023-04-22T23:35:08.445Z,62.38
2023-04-22T23:37:38.964Z,62.36
2023-04-22T23:40:08.980Z,62.53
2023-04-22T23:42:36.984Z,62.36
2023-04-22T23:45:05.602Z,62.71
2023-04-22T23:47:34.698Z,62.11
2023-04-22T23:50:03.308Z,62.39
2023-04-22T23:52:32.744Z,62.37
2023-04-22T23:55:01.915Z,62.66
2023-04-22T23:57:30.592Z,62.08
2023-04-22T23:59:59.019Z,63.18
